Knoxville, TN (37902)

8:44 PM EDT on September 01, 2015 (GMT -0400)
South Hills | | Change Station
CLOSE
Current Station
Personal Weather Station
Location: Knoxville, TN
Elevation: 938 ft
Nearby Weather Stations

Elev 938 ft 35.93 °N, 83.93 °W | Updated 5 seconds ago

Mostly Cloudy
Mostly Cloudy
77.0 °F
Feels Like 79 °F
N
0.0
Wind Variable Wind from SSE
Gusts 0.0 mph

Today
High -- | Low -- °F
--% Chance of Precip.
Yesterday
High -- | Low -- °F
Precip. -- in
7:07 AM 8:03 PM
Waning Gibbous, 85% visible
Pressure 30.04 in
Visibility 10.0 miles
Clouds Few 5500 ft
Mostly Cloudy 25000 ft
Heat Index 79 °F
Dew Point 70 °F
Humidity 79%
Rainfall 0.00 in
Snow Depth Not available.
UV 0.0 out of 12
Pollen 9.30 out of 12
Air Quality Not available.
Flu Activity Not available.
METAR KTYS 012353Z 00000KT 10SM FEW055 BKN250 28/18 A3008 RMK AO2 SLP173 T02830183 10317 20283 58002 $
Pressure 30.04 in
Visibility 10.0 miles
Clouds Few 5500 ft
Mostly Cloudy 25000 ft
Heat Index 79 °F
Dew Point 70 °F
Humidity 79%
Rainfall 0.00 in
Snow Depth Not available.
UV 0.0 out of 12
Pollen 9.30 out of 12
Air Quality Not available.
Flu Activity Not available.
METAR KTYS 012353Z 00000KT 10SM FEW055 BKN250 28/18 A3008 RMK AO2 SLP173 T02830183 10317 20283 58002 $

10-Day Weather Forecast

×

Almanac

Astronomy

Sep. 01, 2015 Rise Set
Actual Time
Civil Twilight
Nautical Twilight
Astronomical Twilight
Moon
Length of Visible Light
Length of Day
Tomorrow will be .
, % of the Moon is Illuminated

Today's Extremes

State Highs State Lows

Community

WunderPhotos

Upload Photos

1,851,658 photos uploaded!

WunderBlogs® & News

Nearby

Air Quality

  Air Quality AQ Index Pollutant
Not available.

Snow Depth

Station Depth Elevation

Earthquake Activity

City Distance Mag. Time & Date
Minimum magnitude displayed is 2.5.

Coastal Water Temperatures

Place Temperature

Stations

Nearby Weather Stations

Station Location Temp. Windchill Dew Point Humidity Wind Precip. Elev Updated Type